createdAt,value
2023-05-20T00:01:30.433Z,16.10
2023-05-20T00:03:57.775Z,16.10
2023-05-20T00:06:24.730Z,16.10
2023-05-20T00:08:51.404Z,16.00
2023-05-20T00:11:18.172Z,16.00
2023-05-20T00:13:45.252Z,15.90
2023-05-20T00:16:11.947Z,15.90
2023-05-20T00:18:38.694Z,15.90
2023-05-20T00:21:05.439Z,15.80
2023-05-20T00:23:32.102Z,15.80
2023-05-20T00:26:00.712Z,14.30
2023-05-20T00:28:27.755Z,15.70
2023-05-20T00:30:54.963Z,15.70
2023-05-20T00:33:21.611Z,15.60
2023-05-20T00:35:48.308Z,15.60
2023-05-20T00:38:14.968Z,15.50
2023-05-20T00:40:41.650Z,15.50
2023-05-20T00:43:10.421Z,15.50
2023-05-20T00:45:38.285Z,15.40
2023-05-20T00:48:06.441Z,15.40
2023-05-20T00:50:33.211Z,15.30
2023-05-20T00:52:59.994Z,15.30
2023-05-20T00:55:26.702Z,15.30
2023-05-20T00:57:54.303Z,15.20
2023-05-20T01:00:21.005Z,15.20
2023-05-20T01:02:49.275Z,15.10
2023-05-20T01:05:16.104Z,15.10
2023-05-20T01:07:43.129Z,15.10
2023-05-20T01:10:10.760Z,15.00
2023-05-20T01:12:41.243Z,15.00
2023-05-20T01:15:12.541Z,14.90
2023-05-20T01:17:52.301Z,14.90
2023-05-20T01:20:21.024Z,14.90
2023-05-20T01:22:55.210Z,14.80
2023-05-20T01:25:22.714Z,14.80
2023-05-20T01:27:50.386Z,14.80
2023-05-20T01:30:17.492Z,14.80
2023-05-20T01:32:52.470Z,14.70
2023-05-20T01:35:21.611Z,14.70
2023-05-20T01:37:50.555Z,14.70
2023-05-20T01:40:18.342Z,14.60
2023-05-20T01:42:46.516Z,14.60
2023-05-20T01:45:13.395Z,14.60
2023-05-20T01:47:40.764Z,14.60
2023-05-20T01:50:08.016Z,14.60
2023-05-20T01:52:34.725Z,14.50
2023-05-20T01:55:01.544Z,14.50
2023-05-20T01:57:28.253Z,14.50
2023-05-20T01:59:54.968Z,14.40
2023-05-20T02:02:21.677Z,14.30
2023-05-20T02:04:50.692Z,14.30
2023-05-20T02:07:21.187Z,14.30
2023-05-20T02:09:48.350Z,14.30
2023-05-20T02:12:18.124Z,14.30
2023-05-20T02:14:48.206Z,14.30
2023-05-20T02:17:16.633Z,14.30
2023-05-20T02:19:44.596Z,14.30
2023-05-20T02:22:11.723Z,14.20
2023-05-20T02:24:38.618Z,14.20
2023-05-20T02:27:06.374Z,14.20
2023-05-20T02:29:33.145Z,14.20
2023-05-20T02:31:59.865Z,14.20
2023-05-20T02:34:27.465Z,14.10
2023-05-20T02:36:54.436Z,14.10
2023-05-20T02:39:21.134Z,14.10
2023-05-20T02:41:47.870Z,14.10
2023-05-20T02:44:15.010Z,14.10
2023-05-20T02:46:41.836Z,14.10
2023-05-20T02:49:08.540Z,14.10
2023-05-20T02:51:35.334Z,14.10
2023-05-20T02:54:02.008Z,14.10
2023-05-20T02:56:28.724Z,14.10
2023-05-20T02:58:55.449Z,14.10
2023-05-20T03:01:23.343Z,14.10
2023-05-20T03:03:50.112Z,14.10
2023-05-20T03:06:16.791Z,14.10
2023-05-20T03:08:43.475Z,14.10
2023-05-20T03:11:10.201Z,14.10
2023-05-20T03:13:36.966Z,14.10
2023-05-20T03:16:03.867Z,14.10
2023-05-20T03:18:30.834Z,14.10
2023-05-20T03:20:57.608Z,14.10
2023-05-20T03:23:24.354Z,14.10
2023-05-20T03:25:51.562Z,14.00
2023-05-20T03:28:18.267Z,13.90
2023-05-20T03:30:45.010Z,14.00
2023-05-20T03:33:11.952Z,13.90
2023-05-20T03:35:38.610Z,13.90
2023-05-20T03:38:05.542Z,14.00
2023-05-20T03:40:32.262Z,14.00
2023-05-20T03:42:58.964Z,14.00
2023-05-20T03:45:25.663Z,14.00
2023-05-20T03:47:52.464Z,14.00
2023-05-20T03:50:19.249Z,14.00
2023-05-20T03:52:45.927Z,14.00
2023-05-20T03:55:12.701Z,14.10
2023-05-20T03:57:39.799Z,14.10
2023-05-20T04:00:11.411Z,14.10
2023-05-20T04:02:38.653Z,14.10
2023-05-20T04:05:08.518Z,14.10
2023-05-20T04:07:35.863Z,14.10
2023-05-20T04:10:03.724Z,14.20
2023-05-20T04:12:32.191Z,14.20
2023-05-20T04:15:01.168Z,14.20
2023-05-20T04:17:30.037Z,14.30
2023-05-20T04:20:00.054Z,14.30
2023-05-20T04:22:27.018Z,14.30
2023-05-20T04:24:53.809Z,14.40
2023-05-20T04:27:21.416Z,14.40
2023-05-20T04:29:48.177Z,14.40
2023-05-20T04:32:18.566Z,14.40
2023-05-20T04:34:46.094Z,14.50
2023-05-20T04:37:13.821Z,14.60
2023-05-20T04:39:40.493Z,14.60
2023-05-20T04:42:07.307Z,14.70
2023-05-20T04:44:34.450Z,14.70
2023-05-20T04:47:01.361Z,14.70
2023-05-20T04:49:29.873Z,14.70
2023-05-20T04:51:56.592Z,14.80
2023-05-20T04:54:23.413Z,14.90
2023-05-20T04:56:51.021Z,14.90
2023-05-20T04:59:17.954Z,15.00
2023-05-20T05:01:44.755Z,15.00
2023-05-20T05:04:11.594Z,15.10
2023-05-20T05:06:38.326Z,15.10
2023-05-20T05:09:05.083Z,15.20
2023-05-20T05:11:31.792Z,15.20
2023-05-20T05:13:58.519Z,15.30
2023-05-20T05:16:25.478Z,15.60
2023-05-20T05:18:52.246Z,15.60
2023-05-20T05:21:18.971Z,15.70
2023-05-20T05:23:45.990Z,15.80
2023-05-20T05:26:12.681Z,15.90
2023-05-20T05:28:41.349Z,16.10
2023-05-20T05:31:08.189Z,16.30
2023-05-20T05:33:34.981Z,16.30
2023-05-20T05:36:02.606Z,16.40
2023-05-20T05:38:29.289Z,16.40
2023-05-20T05:40:56.769Z,16.50
2023-05-20T05:43:23.585Z,16.60
2023-05-20T05:45:50.281Z,16.60
2023-05-20T05:48:16.923Z,16.50
2023-05-20T05:50:47.203Z,16.60
2023-05-20T05:53:13.931Z,16.50
2023-05-20T05:55:40.629Z,16.50
2023-05-20T05:58:07.322Z,16.50
2023-05-20T06:00:34.097Z,16.60
2023-05-20T06:03:01.369Z,16.60
2023-05-20T06:05:29.786Z,16.70
2023-05-20T06:07:56.749Z,16.70
2023-05-20T06:10:23.587Z,16.70
2023-05-20T06:12:50.462Z,16.70
2023-05-20T06:15:17.123Z,16.90
2023-05-20T06:17:44.214Z,17.00
2023-05-20T06:20:11.436Z,17.10
2023-05-20T06:22:38.187Z,17.20
2023-05-20T06:25:06.281Z,17.20
2023-05-20T06:27:33.275Z,17.40
2023-05-20T06:29:59.979Z,17.50
2023-05-20T06:32:27.581Z,17.60
2023-05-20T06:34:54.285Z,17.70
2023-05-20T06:37:24.275Z,17.90
2023-05-20T06:39:53.812Z,18.00
2023-05-20T06:42:24.034Z,18.60
2023-05-20T06:44:50.714Z,19.30
2023-05-20T06:47:18.122Z,20.00
2023-05-20T06:49:47.315Z,20.30
2023-05-20T06:52:14.475Z,20.40
2023-05-20T06:54:41.646Z,20.10
2023-05-20T06:57:09.220Z,20.30
2023-05-20T06:59:36.776Z,20.30
2023-05-20T07:02:04.262Z,20.00
2023-05-20T07:04:30.968Z,19.90
2023-05-20T07:06:57.630Z,19.60
2023-05-20T07:09:24.421Z,19.40
2023-05-20T07:11:51.137Z,19.30
2023-05-20T07:14:17.898Z,19.20
2023-05-20T07:16:44.708Z,19.20
2023-05-20T07:19:11.609Z,19.40
2023-05-20T07:21:38.494Z,19.30
2023-05-20T07:24:05.550Z,19.30
2023-05-20T07:26:36.059Z,19.30
2023-05-20T07:29:04.088Z,19.30
2023-05-20T07:31:31.433Z,19.30
2023-05-20T07:33:58.836Z,19.20
2023-05-20T07:36:27.759Z,19.20
2023-05-20T07:39:03.268Z,19.20
2023-05-20T07:41:31.286Z,19.20
2023-05-20T07:43:57.976Z,19.10
2023-05-20T07:46:24.824Z,19.10
2023-05-20T07:48:51.552Z,19.10
2023-05-20T07:51:18.971Z,19.20
2023-05-20T07:53:45.761Z,19.40
2023-05-20T07:56:12.633Z,19.40
2023-05-20T07:58:41.899Z,19.50
2023-05-20T08:01:09.443Z,19.60
2023-05-20T08:03:36.726Z,19.70
2023-05-20T08:06:03.870Z,19.80
2023-05-20T08:08:30.810Z,20.10
2023-05-20T08:10:57.610Z,20.30
2023-05-20T08:13:25.795Z,20.70
2023-05-20T08:15:54.636Z,21.20
2023-05-20T08:18:21.572Z,21.00
2023-05-20T08:20:48.294Z,22.10
2023-05-20T08:23:15.005Z,22.30
2023-05-20T08:25:41.644Z,22.60
2023-05-20T08:28:08.426Z,22.60
2023-05-20T08:30:35.114Z,22.90
2023-05-20T08:33:01.996Z,23.10
2023-05-20T08:35:28.854Z,23.20
2023-05-20T08:37:55.528Z,23.10
2023-05-20T08:40:22.542Z,23.00
2023-05-20T08:42:52.880Z,23.00
2023-05-20T08:45:21.228Z,23.00
2023-05-20T08:47:48.105Z,23.00
2023-05-20T08:50:16.200Z,23.20
2023-05-20T08:52:45.482Z,23.50
2023-05-20T08:55:17.266Z,23.80
2023-05-20T08:57:45.888Z,24.10
2023-05-20T09:00:17.063Z,24.50
2023-05-20T09:02:46.207Z,24.80
2023-05-20T09:05:13.403Z,25.00
2023-05-20T09:07:42.573Z,25.00
2023-05-20T09:10:09.698Z,24.80
2023-05-20T09:12:37.942Z,24.70
2023-05-20T09:15:05.187Z,24.50
2023-05-20T09:17:32.534Z,24.20
2023-05-20T09:19:59.266Z,24.10
2023-05-20T09:22:29.530Z,23.80
2023-05-20T09:24:56.522Z,23.60
2023-05-20T09:27:24.727Z,23.70
2023-05-20T09:29:51.930Z,23.70
2023-05-20T09:32:24.194Z,24.00
2023-05-20T09:34:51.172Z,24.40
2023-05-20T09:37:22.044Z,24.80
2023-05-20T09:40:01.082Z,25.20
2023-05-20T09:42:31.680Z,25.40
2023-05-20T09:44:58.850Z,25.30
2023-05-20T09:47:26.186Z,25.00
2023-05-20T09:49:53.809Z,24.70
2023-05-20T09:52:21.642Z,24.60
2023-05-20T09:54:49.554Z,24.40
2023-05-20T09:57:16.317Z,24.30
2023-05-20T09:59:44.440Z,24.40
2023-05-20T10:02:11.181Z,24.40
2023-05-20T10:04:43.172Z,24.30
2023-05-20T10:07:41.774Z,24.10
2023-05-20T10:10:21.578Z,23.80
2023-05-20T10:13:06.670Z,23.70
2023-05-20T10:16:05.562Z,23.60
2023-05-20T10:18:53.813Z,23.80
2023-05-20T10:21:24.475Z,24.10
2023-05-20T10:23:52.343Z,24.70
2023-05-20T10:26:19.660Z,25.20
2023-05-20T10:28:46.738Z,25.70
2023-05-20T10:31:22.160Z,26.10
2023-05-20T10:33:49.496Z,26.60
2023-05-20T10:36:31.551Z,26.90
2023-05-20T10:39:00.011Z,27.20
2023-05-20T10:41:29.358Z,27.20
2023-05-20T10:44:06.664Z,27.20
2023-05-20T10:46:44.139Z,27.30
2023-05-20T10:49:24.049Z,27.50
2023-05-20T10:51:54.218Z,27.70
2023-05-20T10:54:22.819Z,27.60
2023-05-20T10:56:54.112Z,27.80
2023-05-20T10:59:21.869Z,28.00
2023-05-20T11:01:49.481Z,28.10
2023-05-20T11:04:17.295Z,28.40
2023-05-20T11:06:51.960Z,28.40
2023-05-20T11:09:18.639Z,28.40
2023-05-20T11:11:45.483Z,28.40
2023-05-20T11:14:16.384Z,28.20
2023-05-20T11:16:43.191Z,27.90
2023-05-20T11:19:16.387Z,27.90
2023-05-20T11:21:44.542Z,27.80
2023-05-20T11:24:11.889Z,28.00
2023-05-20T11:26:39.660Z,28.00
2023-05-20T11:29:07.009Z,28.10
2023-05-20T11:31:33.957Z,27.80
2023-05-20T11:34:04.225Z,27.60
2023-05-20T11:36:31.134Z,27.40
2023-05-20T11:38:58.951Z,27.50
2023-05-20T11:41:26.870Z,27.60
2023-05-20T11:44:00.410Z,27.50
2023-05-20T11:46:28.582Z,27.60
2023-05-20T11:48:56.069Z,27.30
2023-05-20T11:51:30.065Z,27.40
2023-05-20T11:54:03.877Z,27.40
2023-05-20T11:56:34.521Z,27.30
2023-05-20T11:59:01.482Z,27.40
2023-05-20T12:01:31.211Z,27.60
2023-05-20T12:03:57.953Z,27.60
2023-05-20T12:06:24.941Z,27.50
2023-05-20T12:08:51.997Z,27.40
2023-05-20T12:11:18.743Z,27.20
2023-05-20T12:13:45.514Z,27.00
2023-05-20T12:16:12.215Z,27.00
2023-05-20T12:18:38.924Z,26.90
2023-05-20T12:21:05.797Z,26.90
2023-05-20T12:23:34.196Z,26.80
2023-05-20T12:26:01.205Z,26.90
2023-05-20T12:28:27.926Z,27.10
2023-05-20T12:30:54.588Z,27.20
2023-05-20T12:33:21.405Z,27.40
2023-05-20T12:35:48.104Z,27.50
2023-05-20T12:38:14.902Z,27.70
2023-05-20T12:40:41.640Z,28.00
2023-05-20T12:43:08.360Z,28.10
2023-05-20T12:45:35.057Z,28.10
2023-05-20T12:48:02.117Z,28.20
2023-05-20T12:50:28.898Z,28.20
2023-05-20T12:52:55.935Z,28.30
2023-05-20T12:55:22.732Z,28.50
2023-05-20T12:57:50.103Z,28.60
2023-05-20T13:00:17.176Z,28.60
2023-05-20T13:02:44.021Z,28.30
2023-05-20T13:05:11.372Z,28.10
2023-05-20T13:07:38.397Z,27.90
2023-05-20T13:10:06.282Z,27.90
2023-05-20T13:12:34.853Z,28.20
2023-05-20T13:15:01.594Z,28.20
2023-05-20T13:17:28.429Z,28.10
2023-05-20T13:19:55.858Z,28.20
2023-05-20T13:22:22.852Z,28.10
2023-05-20T13:24:49.523Z,28.00
2023-05-20T13:27:16.337Z,27.90
2023-05-20T13:29:43.679Z,27.70
2023-05-20T13:32:10.573Z,27.50
2023-05-20T13:34:38.629Z,27.30
2023-05-20T13:37:06.209Z,27.20
2023-05-20T13:39:33.057Z,27.30
2023-05-20T13:41:59.901Z,27.40
2023-05-20T13:44:26.554Z,27.50
2023-05-20T13:46:53.264Z,27.50
2023-05-20T13:49:20.633Z,27.30
2023-05-20T13:51:47.332Z,27.10
2023-05-20T13:54:13.980Z,26.90
2023-05-20T13:56:40.782Z,26.80
2023-05-20T13:59:07.454Z,26.60
2023-05-20T14:01:34.208Z,26.20
2023-05-20T14:04:01.113Z,26.20
2023-05-20T14:06:29.372Z,26.10
2023-05-20T14:08:57.015Z,25.80
2023-05-20T14:11:23.804Z,26.10
2023-05-20T14:13:50.502Z,26.00
2023-05-20T14:16:17.234Z,26.00
2023-05-20T14:18:44.129Z,25.90
2023-05-20T14:21:11.942Z,25.80
2023-05-20T14:23:41.021Z,25.70
2023-05-20T14:26:07.757Z,25.70
2023-05-20T14:28:34.543Z,25.70
2023-05-20T14:31:01.326Z,25.80
2023-05-20T14:33:28.029Z,25.70
2023-05-20T14:35:54.768Z,25.80
2023-05-20T14:38:21.787Z,25.80
2023-05-20T14:40:48.528Z,25.90
2023-05-20T14:43:15.397Z,25.80
2023-05-20T14:45:42.154Z,25.70
2023-05-20T14:48:08.952Z,25.50
2023-05-20T14:50:35.884Z,25.40
2023-05-20T14:53:02.763Z,25.30
2023-05-20T14:55:29.549Z,25.20
2023-05-20T14:57:56.239Z,25.20
2023-05-20T15:00:22.912Z,25.00
2023-05-20T15:02:49.658Z,25.00
2023-05-20T15:05:17.984Z,25.00
2023-05-20T15:07:44.943Z,25.00
2023-05-20T15:10:13.654Z,24.90
2023-05-20T15:12:40.381Z,24.70
2023-05-20T15:15:07.449Z,24.70
2023-05-20T15:17:34.209Z,24.60
2023-05-20T15:20:01.201Z,24.40
2023-05-20T15:22:27.912Z,24.30
2023-05-20T15:24:54.622Z,24.40
2023-05-20T15:27:21.297Z,24.60
2023-05-20T15:29:48.672Z,24.50
2023-05-20T15:32:15.689Z,24.40
2023-05-20T15:34:42.404Z,24.40
2023-05-20T15:37:09.188Z,24.30
2023-05-20T15:39:38.235Z,24.30
2023-05-20T15:42:06.298Z,24.30
2023-05-20T15:44:33.524Z,24.30
2023-05-20T15:47:00.208Z,24.20
2023-05-20T15:49:26.904Z,24.20
2023-05-20T15:52:02.808Z,24.10
2023-05-20T15:54:30.076Z,24.00
2023-05-20T15:56:57.864Z,24.00
2023-05-20T15:59:24.627Z,23.70
2023-05-20T16:01:52.369Z,23.80
2023-05-20T16:04:19.282Z,23.80
2023-05-20T16:06:46.698Z,23.80
2023-05-20T16:09:13.434Z,23.60
2023-05-20T16:11:40.090Z,23.70
2023-05-20T16:14:06.751Z,23.60
2023-05-20T16:16:35.845Z,23.60
2023-05-20T16:19:02.731Z,23.60
2023-05-20T16:21:29.443Z,23.50
2023-05-20T16:23:56.112Z,23.50
2023-05-20T16:26:23.002Z,23.30
2023-05-20T16:28:49.663Z,23.20
2023-05-20T16:31:16.361Z,23.20
2023-05-20T16:33:43.103Z,23.10
2023-05-20T16:36:09.770Z,23.00
2023-05-20T16:38:36.512Z,23.00
2023-05-20T16:41:03.190Z,22.80
2023-05-20T16:43:29.915Z,22.80
2023-05-20T16:45:56.788Z,22.60
2023-05-20T16:48:23.683Z,22.50
2023-05-20T16:50:50.478Z,22.40
2023-05-20T16:53:17.161Z,22.30
2023-05-20T16:55:43.848Z,22.30
2023-05-20T16:58:10.592Z,22.30
2023-05-20T17:00:37.321Z,22.20
2023-05-20T17:03:04.446Z,22.10
2023-05-20T17:05:31.430Z,22.00
2023-05-20T17:08:00.320Z,21.80
2023-05-20T17:10:28.856Z,21.70
2023-05-20T17:12:55.729Z,21.70
2023-05-20T17:15:23.478Z,21.60
2023-05-20T17:17:50.593Z,21.50
2023-05-20T17:20:17.507Z,21.50
2023-05-20T17:22:44.247Z,21.50
2023-05-20T17:25:11.298Z,21.40
2023-05-20T17:27:38.276Z,21.20
2023-05-20T17:30:05.704Z,21.20
2023-05-20T17:32:32.463Z,21.10
2023-05-20T17:34:59.192Z,21.10
2023-05-20T17:37:26.042Z,21.00
2023-05-20T17:39:52.710Z,21.00
2023-05-20T17:42:19.348Z,20.90
2023-05-20T17:44:46.072Z,20.90
2023-05-20T17:47:12.813Z,20.80
2023-05-20T17:49:39.691Z,20.70
2023-05-20T17:52:06.752Z,20.60
2023-05-20T17:54:33.441Z,20.60
2023-05-20T17:57:00.196Z,20.60
2023-05-20T17:59:26.863Z,20.50
2023-05-20T18:01:53.550Z,20.50
2023-05-20T18:04:21.807Z,20.50
2023-05-20T18:06:48.577Z,20.40
2023-05-20T18:09:15.339Z,20.40
2023-05-20T18:11:42.144Z,20.20
2023-05-20T18:14:08.844Z,20.20
2023-05-20T18:16:35.867Z,20.10
2023-05-20T18:19:03.020Z,20.10
2023-05-20T18:21:30.488Z,20.00
2023-05-20T18:23:57.231Z,20.00
2023-05-20T18:26:23.937Z,20.00
2023-05-20T18:28:50.941Z,20.00
2023-05-20T18:31:17.681Z,19.90
2023-05-20T18:33:44.389Z,19.90
2023-05-20T18:36:11.152Z,19.80
2023-05-20T18:38:39.127Z,19.80
2023-05-20T18:41:07.952Z,19.80
2023-05-20T18:43:34.666Z,19.80
2023-05-20T18:46:01.486Z,19.80
2023-05-20T18:48:28.322Z,19.70
2023-05-20T18:50:56.053Z,19.60
2023-05-20T18:53:22.884Z,19.60
2023-05-20T18:55:49.571Z,19.50
2023-05-20T18:58:16.257Z,19.50
2023-05-20T19:00:42.984Z,19.50
2023-05-20T19:03:09.671Z,19.50
2023-05-20T19:05:36.890Z,19.50
2023-05-20T19:08:05.814Z,19.40
2023-05-20T19:10:32.760Z,19.40
2023-05-20T19:12:59.784Z,19.30
2023-05-20T19:15:26.707Z,19.30
2023-05-20T19:17:53.632Z,19.20
2023-05-20T19:20:20.521Z,19.20
2023-05-20T19:22:47.382Z,19.10
2023-05-20T19:25:14.235Z,19.10
2023-05-20T19:27:41.275Z,19.10
2023-05-20T19:30:10.705Z,19.10
2023-05-20T19:32:38.574Z,19.10
2023-05-20T19:35:06.237Z,19.10
2023-05-20T19:37:33.207Z,19.00
2023-05-20T19:39:59.904Z,19.00
2023-05-20T19:42:26.746Z,19.00
2023-05-20T19:44:54.147Z,19.00
2023-05-20T19:47:21.393Z,19.00
2023-05-20T19:49:48.357Z,20.10
2023-05-20T19:52:15.091Z,19.00
2023-05-20T19:54:42.811Z,18.90
2023-05-20T19:57:09.988Z,18.90
2023-05-20T19:59:38.054Z,18.90
2023-05-20T20:02:06.665Z,18.90
2023-05-20T20:04:33.506Z,18.90
2023-05-20T20:07:00.883Z,18.90
2023-05-20T20:09:27.895Z,18.80
2023-05-20T20:11:54.692Z,18.70
2023-05-20T20:14:21.677Z,18.70
2023-05-20T20:16:49.322Z,18.70
2023-05-20T20:19:18.694Z,18.70
2023-05-20T20:21:46.377Z,18.70
2023-05-20T20:24:13.156Z,18.60
2023-05-20T20:26:40.541Z,18.60
2023-05-20T20:29:10.372Z,18.60
2023-05-20T20:31:37.682Z,18.60
2023-05-20T20:34:04.595Z,18.50
2023-05-20T20:36:32.046Z,18.50
2023-05-20T20:38:59.446Z,18.50
2023-05-20T20:41:26.157Z,18.50
2023-05-20T20:43:53.169Z,18.60
2023-05-20T20:46:20.243Z,18.50
2023-05-20T20:48:47.184Z,18.50
2023-05-20T20:51:15.275Z,18.30
2023-05-20T20:53:42.960Z,18.30
2023-05-20T20:56:10.130Z,18.30
2023-05-20T20:58:37.788Z,18.30
2023-05-20T21:01:05.975Z,18.30
2023-05-20T21:03:39.910Z,18.20
2023-05-20T21:06:07.704Z,18.20
2023-05-20T21:08:34.604Z,18.20
2023-05-20T21:11:01.468Z,18.10
2023-05-20T21:13:28.778Z,18.10
2023-05-20T21:15:55.448Z,18.10
2023-05-20T21:18:23.719Z,18.10
2023-05-20T21:20:51.554Z,18.10
2023-05-20T21:23:19.297Z,18.10
2023-05-20T21:25:46.224Z,18.00
2023-05-20T21:28:13.070Z,18.00
2023-05-20T21:30:39.863Z,18.00
2023-05-20T21:33:06.772Z,18.00
2023-05-20T21:35:33.619Z,18.00
2023-05-20T21:38:00.430Z,18.00
2023-05-20T21:40:27.134Z,18.00
2023-05-20T21:42:53.787Z,18.00
2023-05-20T21:45:20.617Z,17.90
2023-05-20T21:47:47.334Z,17.90
2023-05-20T21:50:14.098Z,17.90
2023-05-20T21:52:40.819Z,18.00
2023-05-20T21:55:09.475Z,18.00
2023-05-20T21:57:36.706Z,18.00
2023-05-20T22:00:09.496Z,17.90
2023-05-20T22:02:36.638Z,17.90
2023-05-20T22:05:04.794Z,17.80
2023-05-20T22:07:31.796Z,17.80
2023-05-20T22:09:58.971Z,17.80
2023-05-20T22:12:25.819Z,17.80
2023-05-20T22:14:52.481Z,17.80
2023-05-20T22:17:20.350Z,17.80
2023-05-20T22:19:47.724Z,17.80
2023-05-20T22:22:14.671Z,17.80
2023-05-20T22:24:41.352Z,17.80
2023-05-20T22:27:08.017Z,17.80
2023-05-20T22:29:35.171Z,17.80
2023-05-20T22:32:02.027Z,17.70
2023-05-20T22:34:28.885Z,17.70
2023-05-20T22:36:55.564Z,17.70
2023-05-20T22:39:22.252Z,17.60
2023-05-20T22:41:49.115Z,17.60
2023-05-20T22:44:15.795Z,17.60
2023-05-20T22:46:42.467Z,17.60
2023-05-20T22:49:10.318Z,17.60
2023-05-20T22:51:38.543Z,17.60
2023-05-20T22:54:06.884Z,17.60
2023-05-20T22:56:34.160Z,17.60
2023-05-20T22:59:01.320Z,17.70
2023-05-20T23:01:28.145Z,17.60
2023-05-20T23:03:55.259Z,17.60
2023-05-20T23:06:22.422Z,17.60
2023-05-20T23:08:49.259Z,17.60
2023-05-20T23:11:15.979Z,17.60
2023-05-20T23:13:42.669Z,17.50
2023-05-20T23:16:10.171Z,17.50
2023-05-20T23:18:37.064Z,17.50
2023-05-20T23:21:04.170Z,17.50
2023-05-20T23:23:32.261Z,17.50
2023-05-20T23:25:59.748Z,17.50
2023-05-20T23:28:26.581Z,17.50
2023-05-20T23:30:53.437Z,17.50
2023-05-20T23:33:24.703Z,17.50
2023-05-20T23:35:52.402Z,17.50
2023-05-20T23:38:19.155Z,17.50
2023-05-20T23:40:45.801Z,17.50
2023-05-20T23:43:12.481Z,17.40
2023-05-20T23:45:39.247Z,17.40
2023-05-20T23:48:07.056Z,17.40
2023-05-20T23:50:33.823Z,17.40
2023-05-20T23:53:00.568Z,17.40
2023-05-20T23:55:30.026Z,17.30
2023-05-20T23:57:56.727Z,17.40
